sensor_id;sensor_type;location;lat;lon;timestamp;temperature;humidity
73133;DHT22;61320;52.008;4.530;2023-05-18T00:01:13;11.67;72.80
73133;DHT22;61320;52.008;4.530;2023-05-18T00:03:39;11.66;73.97
73133;DHT22;61320;52.008;4.530;2023-05-18T00:06:05;11.67;73.52
73133;DHT22;61320;52.008;4.530;2023-05-18T00:08:35;11.67;74.14
73133;DHT22;61320;52.008;4.530;2023-05-18T00:11:01;11.62;73.24
73133;DHT22;61320;52.008;4.530;2023-05-18T00:13:28;11.60;73.21
73133;DHT22;61320;52.008;4.530;2023-05-18T00:15:54;11.60;73.67
73133;DHT22;61320;52.008;4.530;2023-05-18T00:18:20;11.60;73.84
73133;DHT22;61320;52.008;4.530;2023-05-18T00:20:53;11.57;73.91
73133;DHT22;61320;52.008;4.530;2023-05-18T00:23:27;11.59;74.22
73133;DHT22;61320;52.008;4.530;2023-05-18T00:25:56;11.52;71.16
73133;DHT22;61320;52.008;4.530;2023-05-18T00:28:21;11.52;72.45
73133;DHT22;61320;52.008;4.530;2023-05-18T00:30:46;11.50;74.06
73133;DHT22;61320;52.008;4.530;2023-05-18T00:33:12;11.54;73.73
73133;DHT22;61320;52.008;4.530;2023-05-18T00:35:37;11.54;72.51
73133;DHT22;61320;52.008;4.530;2023-05-18T00:38:03;11.50;73.72
73133;DHT22;61320;52.008;4.530;2023-05-18T00:40:28;11.52;73.62
73133;DHT22;61320;52.008;4.530;2023-05-18T00:42:54;11.54;74.11
73133;DHT22;61320;52.008;4.530;2023-05-18T00:45:20;11.50;74.12
73133;DHT22;61320;52.008;4.530;2023-05-18T00:47:45;11.50;74.27
73133;DHT22;61320;52.008;4.530;2023-05-18T00:50:12;11.47;74.11
73133;DHT22;61320;52.008;4.530;2023-05-18T00:52:38;11.46;73.47
73133;DHT22;61320;52.008;4.530;2023-05-18T00:55:04;11.46;74.71
73133;DHT22;61320;52.008;4.530;2023-05-18T00:57:30;11.49;74.31
73133;DHT22;61320;52.008;4.530;2023-05-18T00:59:59;11.50;73.98
73133;DHT22;61320;52.008;4.530;2023-05-18T01:02:24;11.46;74.46
73133;DHT22;61320;52.008;4.530;2023-05-18T01:04:55;11.49;74.84
73133;DHT22;61320;52.008;4.530;2023-05-18T01:07:20;11.49;74.60
73133;DHT22;61320;52.008;4.530;2023-05-18T01:09:52;11.46;74.96
73133;DHT22;61320;52.008;4.530;2023-05-18T01:12:24;11.52;75.02
73133;DHT22;61320;52.008;4.530;2023-05-18T01:15:15;11.43;72.93
73133;DHT22;61320;52.008;4.530;2023-05-18T01:17:58;11.39;74.40
73133;DHT22;61320;52.008;4.530;2023-05-18T01:20:40;11.35;73.56
73133;DHT22;61320;52.008;4.530;2023-05-18T01:23:48;11.36;74.22
73133;DHT22;61320;52.008;4.530;2023-05-18T01:26:22;11.32;74.35
73133;DHT22;61320;52.008;4.530;2023-05-18T01:28:55;11.33;73.44
73133;DHT22;61320;52.008;4.530;2023-05-18T01:31:22;11.30;73.21
73133;DHT22;61320;52.008;4.530;2023-05-18T01:33:48;11.33;74.33
73133;DHT22;61320;52.008;4.530;2023-05-18T01:36:14;11.33;74.64
73133;DHT22;61320;52.008;4.530;2023-05-18T01:38:41;11.32;73.86
73133;DHT22;61320;52.008;4.530;2023-05-18T01:41:17;11.33;73.46
73133;DHT22;61320;52.008;4.530;2023-05-18T01:43:59;11.32;73.78
73133;DHT22;61320;52.008;4.530;2023-05-18T01:46:59;11.29;74.00
73133;DHT22;61320;52.008;4.530;2023-05-18T01:49:39;11.29;74.12
73133;DHT22;61320;52.008;4.530;2023-05-18T01:52:10;11.29;74.12
73133;DHT22;61320;52.008;4.530;2023-05-18T01:54:42;11.25;72.24
73133;DHT22;61320;52.008;4.530;2023-05-18T01:57:08;11.26;74.00
73133;DHT22;61320;52.008;4.530;2023-05-18T01:59:36;11.25;74.03
73133;DHT22;61320;52.008;4.530;2023-05-18T02:02:03;11.29;74.33
73133;DHT22;61320;52.008;4.530;2023-05-18T02:04:29;11.27;74.34
73133;DHT22;61320;52.008;4.530;2023-05-18T02:06:54;11.26;73.37
73133;DHT22;61320;52.008;4.530;2023-05-18T02:09:21;11.27;73.20
73133;DHT22;61320;52.008;4.530;2023-05-18T02:11:47;11.27;74.84
73133;DHT22;61320;52.008;4.530;2023-05-18T02:14:13;11.27;74.42
73133;DHT22;61320;52.008;4.530;2023-05-18T02:16:38;11.29;74.21
73133;DHT22;61320;52.008;4.530;2023-05-18T02:19:04;11.27;74.58
73133;DHT22;61320;52.008;4.530;2023-05-18T02:21:30;11.29;74.21
73133;DHT22;61320;52.008;4.530;2023-05-18T02:23:55;11.26;74.38
73133;DHT22;61320;52.008;4.530;2023-05-18T02:26:20;11.26;74.17
73133;DHT22;61320;52.008;4.530;2023-05-18T02:28:46;11.26;74.09
73133;DHT22;61320;52.008;4.530;2023-05-18T02:31:12;11.25;74.32
73133;DHT22;61320;52.008;4.530;2023-05-18T02:33:37;11.20;73.57
73133;DHT22;61320;52.008;4.530;2023-05-18T02:38:35;11.16;74.25
73133;DHT22;61320;52.008;4.530;2023-05-18T02:41:00;11.16;74.89
73133;DHT22;61320;52.008;4.530;2023-05-18T02:43:26;11.13;74.67
73133;DHT22;61320;52.008;4.530;2023-05-18T02:45:51;11.11;73.36
73133;DHT22;61320;52.008;4.530;2023-05-18T02:48:16;11.05;74.80
73133;DHT22;61320;52.008;4.530;2023-05-18T02:50:42;11.06;74.87
73133;DHT22;61320;52.008;4.530;2023-05-18T02:53:10;11.05;74.27
73133;DHT22;61320;52.008;4.530;2023-05-18T02:55:35;11.04;74.72
73133;DHT22;61320;52.008;4.530;2023-05-18T02:58:01;11.04;74.43
73133;DHT22;61320;52.008;4.530;2023-05-18T03:00:27;11.04;74.58
73133;DHT22;61320;52.008;4.530;2023-05-18T03:02:54;10.98;74.44
73133;DHT22;61320;52.008;4.530;2023-05-18T03:05:22;10.98;74.36
73133;DHT22;61320;52.008;4.530;2023-05-18T03:07:49;10.94;74.07
73133;DHT22;61320;52.008;4.530;2023-05-18T03:10:20;10.92;73.25
73133;DHT22;61320;52.008;4.530;2023-05-18T03:12:46;10.92;74.20
73133;DHT22;61320;52.008;4.530;2023-05-18T03:15:12;10.91;73.95
73133;DHT22;61320;52.008;4.530;2023-05-18T03:17:41;10.91;74.17
73133;DHT22;61320;52.008;4.530;2023-05-18T03:20:07;10.86;74.05
73133;DHT22;61320;52.008;4.530;2023-05-18T03:22:36;10.84;73.41
73133;DHT22;61320;52.008;4.530;2023-05-18T03:25:03;10.82;73.15
73133;DHT22;61320;52.008;4.530;2023-05-18T03:27:28;10.77;73.37
73133;DHT22;61320;52.008;4.530;2023-05-18T03:29:54;10.75;73.41
73133;DHT22;61320;52.008;4.530;2023-05-18T03:32:22;10.75;73.65
73133;DHT22;61320;52.008;4.530;2023-05-18T03:34:50;10.78;74.38
73133;DHT22;61320;52.008;4.530;2023-05-18T03:37:18;10.81;74.54
73133;DHT22;61320;52.008;4.530;2023-05-18T03:39:44;10.84;74.50
73133;DHT22;61320;52.008;4.530;2023-05-18T03:42:09;10.86;74.95
73133;DHT22;61320;52.008;4.530;2023-05-18T03:44:35;10.86;74.27
73133;DHT22;61320;52.008;4.530;2023-05-18T03:47:00;10.85;74.08
73133;DHT22;61320;52.008;4.530;2023-05-18T03:49:26;10.86;73.85
73133;DHT22;61320;52.008;4.530;2023-05-18T03:51:54;10.84;73.24
73133;DHT22;61320;52.008;4.530;2023-05-18T03:54:21;10.82;73.66
73133;DHT22;61320;52.008;4.530;2023-05-18T03:56:47;10.79;72.06
73133;DHT22;61320;52.008;4.530;2023-05-18T03:59:13;10.72;72.92
73133;DHT22;61320;52.008;4.530;2023-05-18T04:01:39;10.71;72.98
73133;DHT22;61320;52.008;4.530;2023-05-18T04:04:09;10.72;73.96
73133;DHT22;61320;52.008;4.530;2023-05-18T04:06:44;10.75;73.94
73133;DHT22;61320;52.008;4.530;2023-05-18T04:09:11;10.75;73.44
73133;DHT22;61320;52.008;4.530;2023-05-18T04:11:39;10.72;73.32
73133;DHT22;61320;52.008;4.530;2023-05-18T04:14:06;10.74;73.69
73133;DHT22;61320;52.008;4.530;2023-05-18T04:16:33;10.75;73.73
73133;DHT22;61320;52.008;4.530;2023-05-18T04:18:58;10.72;71.02
73133;DHT22;61320;52.008;4.530;2023-05-18T04:21:25;10.72;73.58
73133;DHT22;61320;52.008;4.530;2023-05-18T04:23:50;10.74;73.88
73133;DHT22;61320;52.008;4.530;2023-05-18T04:26:16;10.74;73.54
73133;DHT22;61320;52.008;4.530;2023-05-18T04:28:47;10.77;74.18
73133;DHT22;61320;52.008;4.530;2023-05-18T04:31:12;10.77;74.06
73133;DHT22;61320;52.008;4.530;2023-05-18T04:33:42;10.74;73.12
73133;DHT22;61320;52.008;4.530;2023-05-18T04:36:11;10.75;73.47
73133;DHT22;61320;52.008;4.530;2023-05-18T04:38:37;10.78;74.58
73133;DHT22;61320;52.008;4.530;2023-05-18T04:41:02;10.78;74.14
73133;DHT22;61320;52.008;4.530;2023-05-18T04:43:32;10.72;72.98
73133;DHT22;61320;52.008;4.530;2023-05-18T04:45:58;10.75;74.50
73133;DHT22;61320;52.008;4.530;2023-05-18T04:48:23;10.79;74.32
73133;DHT22;61320;52.008;4.530;2023-05-18T04:50:50;10.79;73.33
73133;DHT22;61320;52.008;4.530;2023-05-18T04:53:19;10.84;74.12
73133;DHT22;61320;52.008;4.530;2023-05-18T04:55:48;10.84;73.92
73133;DHT22;61320;52.008;4.530;2023-05-18T04:58:15;10.86;73.98
73133;DHT22;61320;52.008;4.530;2023-05-18T05:00:41;10.86;73.66
73133;DHT22;61320;52.008;4.530;2023-05-18T05:03:07;10.89;72.35
73133;DHT22;61320;52.008;4.530;2023-05-18T05:05:33;10.94;74.19
73133;DHT22;61320;52.008;4.530;2023-05-18T05:08:00;10.98;74.47
73133;DHT22;61320;52.008;4.530;2023-05-18T05:10:25;11.01;73.90
73133;DHT22;61320;52.008;4.530;2023-05-18T05:12:53;11.08;74.10
73133;DHT22;61320;52.008;4.530;2023-05-18T05:15:19;11.09;73.72
73133;DHT22;61320;52.008;4.530;2023-05-18T05:17:46;11.13;74.00
73133;DHT22;61320;52.008;4.530;2023-05-18T05:20:12;11.20;74.26
73133;DHT22;61320;52.008;4.530;2023-05-18T05:22:37;11.22;74.02
73133;DHT22;61320;52.008;4.530;2023-05-18T05:25:03;11.20;72.39
73133;DHT22;61320;52.008;4.530;2023-05-18T05:27:28;11.22;73.21
73133;DHT22;61320;52.008;4.530;2023-05-18T05:29:54;11.20;71.96
73133;DHT22;61320;52.008;4.530;2023-05-18T05:32:20;11.23;74.12
73133;DHT22;61320;52.008;4.530;2023-05-18T05:34:45;11.29;73.01
73133;DHT22;61320;52.008;4.530;2023-05-18T05:37:13;11.35;74.04
73133;DHT22;61320;52.008;4.530;2023-05-18T05:39:38;11.36;72.52
73133;DHT22;61320;52.008;4.530;2023-05-18T05:42:05;11.40;74.06
73133;DHT22;61320;52.008;4.530;2023-05-18T05:44:31;11.43;73.21
73133;DHT22;61320;52.008;4.530;2023-05-18T05:46:57;11.47;73.98
73133;DHT22;61320;52.008;4.530;2023-05-18T05:49:22;11.53;74.07
73133;DHT22;61320;52.008;4.530;2023-05-18T05:51:48;11.57;73.11
73133;DHT22;61320;52.008;4.530;2023-05-18T05:54:13;11.60;73.36
73133;DHT22;61320;52.008;4.530;2023-05-18T05:56:39;11.63;74.05
73133;DHT22;61320;52.008;4.530;2023-05-18T05:59:04;11.70;74.13
73133;DHT22;61320;52.008;4.530;2023-05-18T06:01:30;11.69;72.23
73133;DHT22;61320;52.008;4.530;2023-05-18T06:03:56;11.71;73.10
73133;DHT22;61320;52.008;4.530;2023-05-18T06:06:21;11.70;71.35
73133;DHT22;61320;52.008;4.530;2023-05-18T06:08:47;11.75;72.26
73133;DHT22;61320;52.008;4.530;2023-05-18T06:11:12;11.80;73.33
73133;DHT22;61320;52.008;4.530;2023-05-18T06:13:38;11.81;71.36
73133;DHT22;61320;52.008;4.530;2023-05-18T06:16:04;11.83;72.24
73133;DHT22;61320;52.008;4.530;2023-05-18T06:18:29;11.81;70.66
73133;DHT22;61320;52.008;4.530;2023-05-18T06:20:56;11.88;71.78
73133;DHT22;61320;52.008;4.530;2023-05-18T06:23:22;11.94;72.98
73133;DHT22;61320;52.008;4.530;2023-05-18T06:25:51;11.97;71.13
73133;DHT22;61320;52.008;4.530;2023-05-18T06:28:17;11.97;69.27
73133;DHT22;61320;52.008;4.530;2023-05-18T06:30:43;11.99;72.22
73133;DHT22;61320;52.008;4.530;2023-05-18T06:33:09;12.06;72.99
73133;DHT22;61320;52.008;4.530;2023-05-18T06:35:35;12.10;72.26
73133;DHT22;61320;52.008;4.530;2023-05-18T06:38:00;12.14;72.12
73133;DHT22;61320;52.008;4.530;2023-05-18T06:40:26;12.22;72.04
73133;DHT22;61320;52.008;4.530;2023-05-18T06:42:51;12.25;71.12
73133;DHT22;61320;52.008;4.530;2023-05-18T06:45:17;12.28;71.59
73133;DHT22;61320;52.008;4.530;2023-05-18T06:47:44;12.38;71.02
73133;DHT22;61320;52.008;4.530;2023-05-18T06:50:11;12.46;70.86
73133;DHT22;61320;52.008;4.530;2023-05-18T06:52:36;12.55;71.05
73133;DHT22;61320;52.008;4.530;2023-05-18T06:55:03;12.64;70.70
73133;DHT22;61320;52.008;4.530;2023-05-18T06:57:29;12.70;69.15
73133;DHT22;61320;52.008;4.530;2023-05-18T06:59:56;12.75;69.80
73133;DHT22;61320;52.008;4.530;2023-05-18T07:02:22;12.80;69.94
73133;DHT22;61320;52.008;4.530;2023-05-18T07:04:48;12.91;69.87
73133;DHT22;61320;52.008;4.530;2023-05-18T07:07:14;13.00;70.69
73133;DHT22;61320;52.008;4.530;2023-05-18T07:09:41;13.04;67.00
73133;DHT22;61320;52.008;4.530;2023-05-18T07:12:10;13.04;70.02
73133;DHT22;61320;52.008;4.530;2023-05-18T07:14:36;13.07;68.39
73133;DHT22;61320;52.008;4.530;2023-05-18T07:17:02;13.06;65.82
73133;DHT22;61320;52.008;4.530;2023-05-18T07:19:28;13.10;68.45
73133;DHT22;61320;52.008;4.530;2023-05-18T07:21:53;13.17;69.25
73133;DHT22;61320;52.008;4.530;2023-05-18T07:24:21;13.24;68.26
73133;DHT22;61320;52.008;4.530;2023-05-18T07:26:50;13.31;68.74
73133;DHT22;61320;52.008;4.530;2023-05-18T07:29:18;13.34;66.62
73133;DHT22;61320;52.008;4.530;2023-05-18T07:31:44;13.38;68.16
73133;DHT22;61320;52.008;4.530;2023-05-18T07:34:09;13.44;68.24
73133;DHT22;61320;52.008;4.530;2023-05-18T07:36:35;13.41;66.89
73133;DHT22;61320;52.008;4.530;2023-05-18T07:39:00;13.42;66.57
73133;DHT22;61320;52.008;4.530;2023-05-18T07:41:26;13.45;68.11
73133;DHT22;61320;52.008;4.530;2023-05-18T07:43:52;13.49;67.01
73133;DHT22;61320;52.008;4.530;2023-05-18T07:46:18;13.52;68.75
73133;DHT22;61320;52.008;4.530;2023-05-18T07:48:44;13.54;66.82
73133;DHT22;61320;52.008;4.530;2023-05-18T07:51:10;13.59;68.24
73133;DHT22;61320;52.008;4.530;2023-05-18T07:53:37;13.58;66.55
73133;DHT22;61320;52.008;4.530;2023-05-18T07:56:03;13.61;64.56
73133;DHT22;61320;52.008;4.530;2023-05-18T07:58:29;13.65;66.99
73133;DHT22;61320;52.008;4.530;2023-05-18T08:00:54;13.76;68.54
73133;DHT22;61320;52.008;4.530;2023-05-18T08:03:20;13.80;67.66
73133;DHT22;61320;52.008;4.530;2023-05-18T08:05:45;13.90;66.96
73133;DHT22;61320;52.008;4.530;2023-05-18T08:08:11;14.00;66.72
73133;DHT22;61320;52.008;4.530;2023-05-18T08:10:40;14.07;68.28
73133;DHT22;61320;52.008;4.530;2023-05-18T08:13:06;14.17;65.98
73133;DHT22;61320;52.008;4.530;2023-05-18T08:15:33;14.19;67.31
73133;DHT22;61320;52.008;4.530;2023-05-18T08:17:58;14.19;66.19
73133;DHT22;61320;52.008;4.530;2023-05-18T08:20:23;14.24;66.48
73133;DHT22;61320;52.008;4.530;2023-05-18T08:22:50;14.28;66.10
73133;DHT22;61320;52.008;4.530;2023-05-18T08:25:16;14.26;64.50
73133;DHT22;61320;52.008;4.530;2023-05-18T08:27:41;14.26;65.33
73133;DHT22;61320;52.008;4.530;2023-05-18T08:30:07;14.24;66.01
73133;DHT22;61320;52.008;4.530;2023-05-18T08:32:33;14.23;67.23
73133;DHT22;61320;52.008;4.530;2023-05-18T08:35:02;14.24;65.63
73133;DHT22;61320;52.008;4.530;2023-05-18T08:37:28;14.31;67.73
73133;DHT22;61320;52.008;4.530;2023-05-18T08:39:55;14.37;64.39
73133;DHT22;61320;52.008;4.530;2023-05-18T08:42:22;14.38;64.50
73133;DHT22;61320;52.008;4.530;2023-05-18T08:45:27;14.47;66.36
73133;DHT22;61320;52.008;4.530;2023-05-18T08:47:55;14.54;64.27
73133;DHT22;61320;52.008;4.530;2023-05-18T08:50:24;14.54;65.22
73133;DHT22;61320;52.008;4.530;2023-05-18T08:52:54;14.61;65.75
73133;DHT22;61320;52.008;4.530;2023-05-18T08:55:22;14.71;64.62
73133;DHT22;61320;52.008;4.530;2023-05-18T08:57:51;14.85;67.15
73133;DHT22;61320;52.008;4.530;2023-05-18T09:00:21;14.99;61.72
73133;DHT22;61320;52.008;4.530;2023-05-18T09:02:48;15.07;62.59
73133;DHT22;61320;52.008;4.530;2023-05-18T09:05:15;15.16;61.88
73133;DHT22;61320;52.008;4.530;2023-05-18T09:07:42;15.37;65.00
73133;DHT22;61320;52.008;4.530;2023-05-18T09:10:12;15.47;64.72
73133;DHT22;61320;52.008;4.530;2023-05-18T09:12:41;15.54;62.88
73133;DHT22;61320;52.008;4.530;2023-05-18T09:15:10;15.57;64.06
73133;DHT22;61320;52.008;4.530;2023-05-18T09:17:36;15.64;65.20
73133;DHT22;61320;52.008;4.530;2023-05-18T09:20:02;15.74;64.62
73133;DHT22;61320;52.008;4.530;2023-05-18T09:22:32;15.81;63.58
73133;DHT22;61320;52.008;4.530;2023-05-18T09:24:57;15.81;62.79
73133;DHT22;61320;52.008;4.530;2023-05-18T09:27:23;15.81;60.04
73133;DHT22;61320;52.008;4.530;2023-05-18T09:29:53;15.81;60.42
73133;DHT22;61320;52.008;4.530;2023-05-18T09:32:22;15.85;62.15
73133;DHT22;61320;52.008;4.530;2023-05-18T09:34:48;15.85;63.19
73133;DHT22;61320;52.008;4.530;2023-05-18T09:37:21;15.95;64.17
73133;DHT22;61320;52.008;4.530;2023-05-18T09:40:04;15.98;61.05
73133;DHT22;61320;52.008;4.530;2023-05-18T09:42:41;16.14;65.01
73133;DHT22;61320;52.008;4.530;2023-05-18T09:45:20;16.24;62.88
73133;DHT22;61320;52.008;4.530;2023-05-18T09:47:52;16.35;59.72
73133;DHT22;61320;52.008;4.530;2023-05-18T09:50:19;16.45;64.02
73133;DHT22;61320;52.008;4.530;2023-05-18T09:52:45;16.45;60.27
73133;DHT22;61320;52.008;4.530;2023-05-18T09:55:16;16.53;62.13
73133;DHT22;61320;52.008;4.530;2023-05-18T09:57:44;16.57;61.54
73133;DHT22;61320;52.008;4.530;2023-05-18T10:00:11;16.67;59.62
73133;DHT22;61320;52.008;4.530;2023-05-18T10:02:42;16.81;59.38
73133;DHT22;61320;52.008;4.530;2023-05-18T10:05:20;16.90;60.26
73133;DHT22;61320;52.008;4.530;2023-05-18T10:07:46;17.07;62.13
73133;DHT22;61320;52.008;4.530;2023-05-18T10:10:17;17.14;56.89
73133;DHT22;61320;52.008;4.530;2023-05-18T10:12:44;17.17;55.67
73133;DHT22;61320;52.008;4.530;2023-05-18T10:15:13;17.27;53.59
73133;DHT22;61320;52.008;4.530;2023-05-18T10:17:41;17.31;59.08
73133;DHT22;61320;52.008;4.530;2023-05-18T10:20:08;17.36;57.29
73133;DHT22;61320;52.008;4.530;2023-05-18T10:22:35;17.49;59.06
73133;DHT22;61320;52.008;4.530;2023-05-18T10:25:04;17.63;58.85
73133;DHT22;61320;52.008;4.530;2023-05-18T10:27:34;17.83;58.57
73133;DHT22;61320;52.008;4.530;2023-05-18T10:30:00;18.04;56.88
73133;DHT22;61320;52.008;4.530;2023-05-18T10:32:29;18.33;58.75
73133;DHT22;61320;52.008;4.530;2023-05-18T10:34:58;18.43;58.71
73133;DHT22;61320;52.008;4.530;2023-05-18T10:37:26;18.37;57.59
73133;DHT22;61320;52.008;4.530;2023-05-18T10:39:55;18.26;57.93
73133;DHT22;61320;52.008;4.530;2023-05-18T10:42:24;18.07;58.37
73133;DHT22;61320;52.008;4.530;2023-05-18T10:44:52;17.85;56.59
73133;DHT22;61320;52.008;4.530;2023-05-18T10:47:18;17.62;58.84
73133;DHT22;61320;52.008;4.530;2023-05-18T10:49:48;17.45;56.51
73133;DHT22;61320;52.008;4.530;2023-05-18T10:52:16;17.32;60.05
73133;DHT22;61320;52.008;4.530;2023-05-18T10:54:42;17.34;62.04
73133;DHT22;61320;52.008;4.530;2023-05-18T10:57:15;17.48;58.70
73133;DHT22;61320;52.008;4.530;2023-05-18T10:59:43;17.65;60.80
73133;DHT22;61320;52.008;4.530;2023-05-18T11:02:14;17.68;61.20
73133;DHT22;61320;52.008;4.530;2023-05-18T11:04:40;17.82;59.30
73133;DHT22;61320;52.008;4.530;2023-05-18T11:07:10;18.14;59.44
73133;DHT22;61320;52.008;4.530;2023-05-18T11:09:40;18.54;60.58
73133;DHT22;61320;52.008;4.530;2023-05-18T11:12:11;18.68;57.81
73133;DHT22;61320;52.008;4.530;2023-05-18T11:14:53;18.64;57.32
73133;DHT22;61320;52.008;4.530;2023-05-18T11:17:24;18.47;53.32
73133;DHT22;61320;52.008;4.530;2023-05-18T11:22:49;18.59;59.75
73133;DHT22;61320;52.008;4.530;2023-05-18T11:27:54;19.08;59.16
73133;DHT22;61320;52.008;4.530;2023-05-18T11:30:26;19.15;57.07
73133;DHT22;61320;52.008;4.530;2023-05-18T11:32:52;19.12;59.00
73133;DHT22;61320;52.008;4.530;2023-05-18T11:35:23;19.12;58.84
73133;DHT22;61320;52.008;4.530;2023-05-18T11:37:48;19.13;54.20
73133;DHT22;61320;52.008;4.530;2023-05-18T11:40:49;19.26;56.23
73133;DHT22;61320;52.008;4.530;2023-05-18T11:43:22;19.27;56.28
73133;DHT22;61320;52.008;4.530;2023-05-18T11:45:55;19.33;54.65
73133;DHT22;61320;52.008;4.530;2023-05-18T11:48:25;19.31;53.52
73133;DHT22;61320;52.008;4.530;2023-05-18T11:50:55;19.27;47.57
73133;DHT22;61320;52.008;4.530;2023-05-18T11:53:25;19.24;56.93
73133;DHT22;61320;52.008;4.530;2023-05-18T11:55:52;19.20;54.63
73133;DHT22;61320;52.008;4.530;2023-05-18T11:58:24;19.29;56.69
73133;DHT22;61320;52.008;4.530;2023-05-18T12:00:51;19.37;55.10
73133;DHT22;61320;52.008;4.530;2023-05-18T12:03:22;19.39;53.98
73133;DHT22;61320;52.008;4.530;2023-05-18T12:05:49;19.39;53.10
73133;DHT22;61320;52.008;4.530;2023-05-18T12:08:17;19.39;54.41
73133;DHT22;61320;52.008;4.530;2023-05-18T12:10:44;19.30;49.93
73133;DHT22;61320;52.008;4.530;2023-05-18T12:13:15;19.30;46.42
73133;DHT22;61320;52.008;4.530;2023-05-18T12:15:42;19.22;54.46
73133;DHT22;61320;52.008;4.530;2023-05-18T12:18:07;19.22;55.73
73133;DHT22;61320;52.008;4.530;2023-05-18T12:20:33;19.17;50.54
73133;DHT22;61320;52.008;4.530;2023-05-18T12:22:59;19.02;50.03
73133;DHT22;61320;52.008;4.530;2023-05-18T12:25:26;19.03;53.86
73133;DHT22;61320;52.008;4.530;2023-05-18T12:27:53;19.02;58.04
73133;DHT22;61320;52.008;4.530;2023-05-18T12:30:24;18.99;53.51
73133;DHT22;61320;52.008;4.530;2023-05-18T12:32:55;18.98;54.38
73133;DHT22;61320;52.008;4.530;2023-05-18T12:35:25;19.05;56.21
73133;DHT22;61320;52.008;4.530;2023-05-18T12:37:51;19.02;51.21
73133;DHT22;61320;52.008;4.530;2023-05-18T12:40:20;19.08;56.67
73133;DHT22;61320;52.008;4.530;2023-05-18T12:45:31;19.30;58.36
73133;DHT22;61320;52.008;4.530;2023-05-18T12:48:09;19.36;51.29
73133;DHT22;61320;52.008;4.530;2023-05-18T12:50:35;19.39;56.11
73133;DHT22;61320;52.008;4.530;2023-05-18T12:53:01;19.33;50.59
73133;DHT22;61320;52.008;4.530;2023-05-18T12:55:28;19.41;57.75
73133;DHT22;61320;52.008;4.530;2023-05-18T12:58:03;19.46;57.27
73133;DHT22;61320;52.008;4.530;2023-05-18T13:00:33;19.46;52.31
73133;DHT22;61320;52.008;4.530;2023-05-18T13:03:06;19.54;57.56
73133;DHT22;61320;52.008;4.530;2023-05-18T13:05:32;19.57;55.94
73133;DHT22;61320;52.008;4.530;2023-05-18T13:07:57;19.60;55.97
73133;DHT22;61320;52.008;4.530;2023-05-18T13:10:23;19.61;53.93
73133;DHT22;61320;52.008;4.530;2023-05-18T13:12:50;19.68;56.84
73133;DHT22;61320;52.008;4.530;2023-05-18T13:15:16;19.71;57.13
73133;DHT22;61320;52.008;4.530;2023-05-18T13:17:55;19.78;53.12
73133;DHT22;61320;52.008;4.530;2023-05-18T13:20:22;19.73;53.53
73133;DHT22;61320;52.008;4.530;2023-05-18T13:22:50;19.67;48.81
73133;DHT22;61320;52.008;4.530;2023-05-18T13:25:15;19.74;53.51
73133;DHT22;61320;52.008;4.530;2023-05-18T13:27:42;19.85;60.02
73133;DHT22;61320;52.008;4.530;2023-05-18T13:30:10;19.82;56.33
73133;DHT22;61320;52.008;4.530;2023-05-18T13:32:36;19.77;53.03
73133;DHT22;61320;52.008;4.530;2023-05-18T13:35:01;19.74;54.85
73133;DHT22;61320;52.008;4.530;2023-05-18T13:37:27;19.74;56.45
73133;DHT22;61320;52.008;4.530;2023-05-18T13:39:52;19.73;50.33
73133;DHT22;61320;52.008;4.530;2023-05-18T13:42:18;19.81;59.60
73133;DHT22;61320;52.008;4.530;2023-05-18T13:44:45;19.79;56.90
73133;DHT22;61320;52.008;4.530;2023-05-18T13:47:11;19.85;53.35
73133;DHT22;61320;52.008;4.530;2023-05-18T13:49:36;19.85;57.44
73133;DHT22;61320;52.008;4.530;2023-05-18T13:52:02;19.87;55.53
73133;DHT22;61320;52.008;4.530;2023-05-18T13:54:27;19.82;51.08
73133;DHT22;61320;52.008;4.530;2023-05-18T13:56:53;19.82;57.58
73133;DHT22;61320;52.008;4.530;2023-05-18T13:59:18;19.85;57.86
73133;DHT22;61320;52.008;4.530;2023-05-18T14:01:46;19.81;56.30
73133;DHT22;61320;52.008;4.530;2023-05-18T14:04:12;19.79;52.79
73133;DHT22;61320;52.008;4.530;2023-05-18T14:06:37;19.77;50.17
73133;DHT22;61320;52.008;4.530;2023-05-18T14:09:03;19.81;54.28
73133;DHT22;61320;52.008;4.530;2023-05-18T14:11:28;19.81;59.11
73133;DHT22;61320;52.008;4.530;2023-05-18T14:13:54;19.82;57.03
73133;DHT22;61320;52.008;4.530;2023-05-18T14:16:19;19.84;60.02
73133;DHT22;61320;52.008;4.530;2023-05-18T14:18:44;19.84;56.42
73133;DHT22;61320;52.008;4.530;2023-05-18T14:21:10;19.82;53.98
73133;DHT22;61320;52.008;4.530;2023-05-18T14:23:35;19.87;58.95
73133;DHT22;61320;52.008;4.530;2023-05-18T14:26:01;19.77;54.55
73133;DHT22;61320;52.008;4.530;2023-05-18T14:28:26;19.70;56.23
73133;DHT22;61320;52.008;4.530;2023-05-18T14:30:52;19.67;57.30
73133;DHT22;61320;52.008;4.530;2023-05-18T14:33:17;19.73;58.99
73133;DHT22;61320;52.008;4.530;2023-05-18T14:35:42;19.71;54.65
73133;DHT22;61320;52.008;4.530;2023-05-18T14:38:08;19.73;55.39
73133;DHT22;61320;52.008;4.530;2023-05-18T14:40:33;19.71;54.36
73133;DHT22;61320;52.008;4.530;2023-05-18T14:42:59;19.63;53.96
73133;DHT22;61320;52.008;4.530;2023-05-18T14:45:24;19.58;54.30
73133;DHT22;61320;52.008;4.530;2023-05-18T14:47:50;19.50;52.52
73133;DHT22;61320;52.008;4.530;2023-05-18T14:50:15;19.43;59.73
73133;DHT22;61320;52.008;4.530;2023-05-18T14:52:41;19.36;59.98
73133;DHT22;61320;52.008;4.530;2023-05-18T14:55:07;19.29;54.58
73133;DHT22;61320;52.008;4.530;2023-05-18T14:57:32;19.31;58.30
73133;DHT22;61320;52.008;4.530;2023-05-18T14:59:58;19.36;58.66
73133;DHT22;61320;52.008;4.530;2023-05-18T15:02:24;19.37;54.67
73133;DHT22;61320;52.008;4.530;2023-05-18T15:04:50;19.49;58.12
73133;DHT22;61320;52.008;4.530;2023-05-18T15:07:15;19.53;58.95
73133;DHT22;61320;52.008;4.530;2023-05-18T15:09:41;19.49;53.84
73133;DHT22;61320;52.008;4.530;2023-05-18T15:12:06;19.51;56.43
73133;DHT22;61320;52.008;4.530;2023-05-18T15:14:32;19.66;59.98
73133;DHT22;61320;52.008;4.530;2023-05-18T15:16:57;19.70;60.28
73133;DHT22;61320;52.008;4.530;2023-05-18T15:19:23;19.75;58.09
73133;DHT22;61320;52.008;4.530;2023-05-18T15:21:48;19.84;60.85
73133;DHT22;61320;52.008;4.530;2023-05-18T15:24:14;19.91;57.42
73133;DHT22;61320;52.008;4.530;2023-05-18T15:26:40;19.92;54.30
73133;DHT22;61320;52.008;4.530;2023-05-18T15:29:06;19.98;58.64
73133;DHT22;61320;52.008;4.530;2023-05-18T15:31:32;19.99;56.44
73133;DHT22;61320;52.008;4.530;2023-05-18T15:33:57;19.85;54.51
73133;DHT22;61320;52.008;4.530;2023-05-18T15:36:23;19.91;54.85
73133;DHT22;61320;52.008;4.530;2023-05-18T15:38:48;19.94;57.20
73133;DHT22;61320;52.008;4.530;2023-05-18T15:41:14;19.99;49.30
73133;DHT22;61320;52.008;4.530;2023-05-18T15:43:39;20.02;57.88